Time;durP1;ratioP1;P1;durP2;ratioP2;P2;SDS_P1;SDS_P2;PMS_P1;PMS_P2;Temp;Humidity;BMP_temperature;BMP_pressure;BME280_temperature;BME280_humidity;BME280_pressure;Samples;Min_cycle;Max_cycle;Signal;HPM_P1;HPM_P2
2023/05/03 00:01:15;;;;;;;308.57;290.93;;;6.70;52.10;;;;;;5014728;28;20667;-70
2023/05/03 00:03:40;;;;;;;281.70;264.70;;;6.60;51.90;;;;;;5012661;28;20216;-70
2023/05/03 00:06:14;;;;;;;120.67;108.47;;;6.60;52.20;;;;;;5014902;28;20180;-70
2023/05/03 00:08:39;;;;;;;179.83;166.10;;;6.60;52.40;;;;;;5015068;28;20691;-69
2023/05/03 00:11:05;;;;;;;219.63;204.67;;;6.50;51.90;;;;;;5014367;28;20490;-70
2023/05/03 00:13:31;;;;;;;185.30;171.67;;;6.50;53.30;;;;;;5013904;28;20274;-70
2023/05/03 00:15:56;;;;;;;162.07;149.23;;;6.40;54.40;;;;;;5014201;28;20442;-70
2023/05/03 00:18:22;;;;;;;215.60;200.60;;;6.40;54.60;;;;;;5014310;28;20270;-70
2023/05/03 00:20:49;;;;;;;142.13;129.83;;;6.40;55.00;;;;;;5015256;28;20173;-69
2023/05/03 00:23:14;;;;;;;131.77;120.37;;;6.30;55.80;;;;;;5015477;28;20423;-69
2023/05/03 00:25:40;;;;;;;170.47;157.00;;;6.30;55.70;;;;;;5016358;28;20427;-69
2023/05/03 00:28:05;;;;;;;186.67;172.87;;;6.30;55.60;;;;;;5015536;28;20540;-69
2023/05/03 00:30:31;;;;;;;334.27;314.87;;;6.30;55.30;;;;;;5014802;28;20217;-69
2023/05/03 00:32:57;;;;;;;168.20;155.10;;;6.30;55.30;;;;;;5014391;28;20717;-69
2023/05/03 00:35:22;;;;;;;130.60;117.80;;;6.30;56.20;;;;;;5014316;28;20679;-69
2023/05/03 00:37:48;;;;;;;296.67;279.20;;;6.30;55.00;;;;;;5012629;28;20689;-69
2023/05/03 00:40:17;;;;;;;172.03;158.70;;;6.20;55.20;;;;;;5014300;28;20533;-68
2023/05/03 00:42:43;;;;;;;332.57;314.00;;;6.20;56.60;;;;;;5014251;28;20176;-69
2023/05/03 00:45:10;;;;;;;237.83;221.73;;;6.20;55.10;;;;;;5014185;28;20982;-69
2023/05/03 00:47:35;;;;;;;218.53;203.53;;;6.10;55.70;;;;;;5013777;28;20529;-69
2023/05/03 00:50:01;;;;;;;168.27;154.30;;;6.10;56.10;;;;;;5013899;28;20855;-70
2023/05/03 00:52:28;;;;;;;200.40;185.87;;;6.10;57.60;;;;;;5013675;28;20180;-70
2023/05/03 00:54:55;;;;;;;209.90;195.13;;;6.10;56.90;;;;;;5014241;28;20421;-70
2023/05/03 00:57:22;;;;;;;336.20;317.00;;;6.10;56.80;;;;;;5014068;28;20445;-69
2023/05/03 00:59:49;;;;;;;196.93;182.37;;;6.10;55.70;;;;;;5013862;28;20971;-70
2023/05/03 01:02:14;;;;;;;317.93;299.90;;;6.20;55.00;;;;;;5012018;28;20505;-69
2023/05/03 01:04:41;;;;;;;212.23;197.70;;;6.20;55.00;;;;;;5012653;28;20422;-70
2023/05/03 01:07:29;;;;;;;240.10;224.63;;;6.20;54.30;;;;;;5013643;28;20192;-70
2023/05/03 01:10:24;;;;;;;102.13;89.00;;;6.10;54.10;;;;;;5013582;28;20406;-69
2023/05/03 01:13:03;;;;;;;275.37;256.60;;;6.10;56.10;;;;;;5013157;28;20462;-68
2023/05/03 01:15:50;;;;;;;204.97;190.80;;;6.00;54.50;;;;;;5013917;28;20415;-69
2023/05/03 01:18:31;;;;;;;164.90;152.27;;;6.00;56.00;;;;;;5013033;28;21041;-70
2023/05/03 01:20:58;;;;;;;190.27;176.63;;;5.90;56.20;;;;;;5013358;28;20434;-70
2023/05/03 01:23:45;;;;;;;274.87;257.67;;;5.90;56.00;;;;;;5013046;28;20427;-70
2023/05/03 01:26:21;;;;;;;109.80;98.87;;;5.90;57.10;;;;;;5012558;28;20419;-69
2023/05/03 01:28:47;;;;;;;165.60;152.40;;;5.90;58.00;;;;;;5013826;28;20857;-69
2023/05/03 01:31:45;;;;;;;159.47;146.63;;;5.90;57.00;;;;;;5013192;28;20434;-69
2023/05/03 01:34:25;;;;;;;183.53;169.97;;;5.90;57.00;;;;;;4990937;28;20431;-69
2023/05/03 01:36:56;;;;;;;298.97;279.47;;;5.90;57.80;;;;;;5017118;28;20415;-69
2023/05/03 01:39:44;;;;;;;253.07;237.00;;;5.90;57.00;;;;;;5016282;28;20466;-69
2023/05/03 01:42:11;;;;;;;159.67;146.43;;;5.80;57.90;;;;;;5015447;28;20434;-68
2023/05/03 01:44:38;;;;;;;187.10;173.40;;;5.80;58.60;;;;;;5016407;28;20407;-68
2023/05/03 01:47:03;;;;;;;102.67;89.27;;;5.80;57.90;;;;;;5015901;28;20455;-69
2023/05/03 01:49:29;;;;;;;263.47;247.53;;;5.80;58.60;;;;;;5015824;28;20504;-69
2023/05/03 01:51:55;;;;;;;193.57;179.77;;;5.80;57.50;;;;;;5016642;28;20230;-69
2023/05/03 01:54:21;;;;;;;102.10;91.00;;;5.80;58.30;;;;;;5015124;28;20964;-69
2023/05/03 01:56:46;;;;;;;142.93;130.43;;;5.80;57.70;;;;;;5016245;28;20176;-69
2023/05/03 01:59:12;;;;;;;131.87;120.13;;;5.70;57.20;;;;;;5015927;28;20204;-69
2023/05/03 02:01:37;;;;;;;109.87;97.63;;;5.70;56.30;;;;;;5016458;28;20185;-69
2023/05/03 02:04:03;;;;;;;91.17;71.87;;;5.70;56.60;;;;;;5016260;28;20653;-70
2023/05/03 02:06:28;;;;;;;176.97;163.53;;;5.70;57.00;;;;;;5016679;28;20207;-69
2023/05/03 02:08:54;;;;;;;172.90;159.27;;;5.70;56.70;;;;;;5014801;28;20293;-69
2023/05/03 02:11:20;;;;;;;196.87;183.07;;;5.70;56.60;;;;;;5016426;28;20187;-69
2023/05/03 02:13:48;;;;;;;102.77;84.07;;;5.60;56.60;;;;;;5016076;28;20195;-69
2023/05/03 02:16:13;;;;;;;170.87;157.73;;;5.60;56.90;;;;;;5016220;28;20175;-69
2023/05/03 02:18:39;;;;;;;216.47;201.93;;;5.60;57.20;;;;;;5016131;28;20480;-68
2023/05/03 02:21:05;;;;;;;141.73;129.17;;;5.70;56.10;;;;;;5016013;28;20550;-69
2023/05/03 02:23:31;;;;;;;168.10;154.73;;;5.70;57.10;;;;;;5015856;28;20257;-70
2023/05/03 02:25:57;;;;;;;176.83;163.53;;;5.70;56.30;;;;;;5016266;28;20470;-68
2023/05/03 02:28:22;;;;;;;196.67;182.40;;;5.70;55.90;;;;;;5015940;28;20639;-69
2023/05/03 02:30:48;;;;;;;92.37;62.87;;;5.70;56.30;;;;;;5016125;28;20500;-69
2023/05/03 02:33:14;;;;;;;92.77;79.37;;;5.60;57.20;;;;;;5014588;28;20232;-69
2023/05/03 02:35:39;;;;;;;185.13;171.20;;;5.60;57.80;;;;;;5015880;28;20176;-69
2023/05/03 02:38:05;;;;;;;135.30;123.23;;;5.70;56.30;;;;;;5014291;28;20470;-69
2023/05/03 02:40:31;;;;;;;169.10;155.93;;;5.70;56.70;;;;;;5015964;28;20206;-69
2023/05/03 02:42:56;;;;;;;188.43;174.70;;;5.70;56.20;;;;;;5015952;28;20178;-69
2023/05/03 02:45:23;;;;;;;203.17;189.00;;;5.70;56.50;;;;;;5015349;28;20416;-69
2023/05/03 02:47:48;;;;;;;213.18;198.50;;;5.70;56.90;;;;;;5014856;28;20223;-69
2023/05/03 02:50:14;;;;;;;288.83;271.70;;;5.70;56.00;;;;;;5015927;28;20184;-68
2023/05/03 02:52:39;;;;;;;273.23;256.90;;;5.70;56.10;;;;;;5015811;28;20410;-69
2023/05/03 02:55:05;;;;;;;112.10;100.67;;;5.70;55.70;;;;;;5016395;28;20306;-68
2023/05/03 02:57:31;;;;;;;355.37;330.73;;;5.70;55.80;;;;;;5016098;28;20207;-69
2023/05/03 02:59:57;;;;;;;196.37;182.13;;;5.70;54.80;;;;;;5015895;28;20435;-69
2023/05/03 03:02:23;;;;;;;143.70;131.23;;;5.60;55.50;;;;;;5013551;28;20519;-69
2023/05/03 03:04:48;;;;;;;164.43;151.20;;;5.50;57.00;;;;;;5002524;28;20187;-69
2023/05/03 03:07:14;;;;;;;188.33;174.80;;;5.60;56.30;;;;;;5004485;28;20279;-69
2023/05/03 03:09:39;;;;;;;236.57;221.33;;;5.50;55.90;;;;;;5003901;28;20207;-69
2023/05/03 03:12:05;;;;;;;191.73;177.87;;;5.40;57.00;;;;;;5005219;28;20184;-69
2023/05/03 03:14:30;;;;;;;102.70;83.43;;;5.40;57.80;;;;;;5006315;28;20184;-70
2023/05/03 03:16:57;;;;;;;188.93;175.63;;;5.50;58.30;;;;;;5005614;28;20229;-70
2023/05/03 03:19:22;;;;;;;208.13;193.70;;;5.50;58.30;;;;;;5004334;28;20611;-69
2023/05/03 03:21:48;;;;;;;105.77;94.67;;;5.50;57.40;;;;;;5004049;28;20512;-70
2023/05/03 03:24:14;;;;;;;93.23;82.50;;;5.40;58.30;;;;;;5003854;28;20180;-70
2023/05/03 03:26:40;;;;;;;130.67;118.70;;;5.50;58.30;;;;;;4997330;28;20252;-69
2023/05/03 03:29:05;;;;;;;178.90;165.17;;;5.50;58.30;;;;;;5003749;28;20451;-69
2023/05/03 03:31:31;;;;;;;129.83;117.67;;;5.50;57.60;;;;;;5014593;28;20187;-69
2023/05/03 03:33:56;;;;;;;225.33;210.70;;;5.40;57.50;;;;;;5015204;28;20542;-69
2023/05/03 03:36:22;;;;;;;220.27;205.43;;;5.40;57.30;;;;;;5015314;28;20179;-69
2023/05/03 03:38:48;;;;;;;254.20;238.67;;;5.30;57.20;;;;;;5014232;28;20204;-69
2023/05/03 03:41:13;;;;;;;234.07;218.50;;;5.30;58.50;;;;;;5014346;28;20654;-70
2023/05/03 03:43:39;;;;;;;206.07;191.87;;;5.20;58.50;;;;;;5014446;28;20410;-69
2023/05/03 03:46:04;;;;;;;173.43;159.83;;;5.20;58.20;;;;;;5014595;28;20634;-69
2023/05/03 03:48:30;;;;;;;177.40;164.07;;;5.20;58.40;;;;;;5014076;28;20231;-69
2023/05/03 03:50:55;;;;;;;139.17;126.90;;;5.20;59.50;;;;;;5014238;28;20186;-69
2023/05/03 03:53:21;;;;;;;129.30;117.47;;;5.20;59.20;;;;;;5013779;28;20198;-69
2023/05/03 03:55:47;;;;;;;214.97;199.77;;;5.20;58.50;;;;;;5013819;28;20193;-69
2023/05/03 03:58:12;;;;;;;190.47;176.77;;;5.20;58.10;;;;;;5012729;28;20210;-69
2023/05/03 04:00:38;;;;;;;164.30;150.90;;;5.20;58.10;;;;;;5013684;28;20400;-69
2023/05/03 04:03:05;;;;;;;112.83;101.83;;;5.20;58.00;;;;;;5013485;28;20245;-70
2023/05/03 04:05:31;;;;;;;115.63;104.17;;;5.20;58.00;;;;;;5013644;28;20405;-69
2023/05/03 04:07:56;;;;;;;160.27;147.77;;;5.30;58.20;;;;;;5013397;28;20441;-70
2023/05/03 04:10:22;;;;;;;105.10;94.30;;;5.30;58.10;;;;;;5012074;28;20184;-69
2023/05/03 04:12:47;;;;;;;158.03;145.27;;;5.40;59.20;;;;;;5013317;28;20214;-69
2023/05/03 04:15:13;;;;;;;90.10;71.70;;;5.40;59.20;;;;;;5013542;28;20182;-69
2023/05/03 04:17:39;;;;;;;142.87;130.33;;;5.50;59.80;;;;;;5013665;28;20307;-70
2023/05/03 04:20:09;;;;;;;139.17;126.97;;;5.60;58.50;;;;;;5014170;28;20202;-70
2023/05/03 04:22:36;;;;;;;161.10;147.60;;;5.70;59.10;;;;;;5013386;28;20172;-70
2023/05/03 04:25:01;;;;;;;201.03;186.53;;;5.80;58.50;;;;;;5013530;28;20407;-70
2023/05/03 04:27:27;;;;;;;88.80;51.97;;;5.80;59.20;;;;;;5013099;28;20435;-71
2023/05/03 04:29:53;;;;;;;106.77;94.63;;;5.90;58.70;;;;;;5013127;28;20649;-70
2023/05/03 04:32:22;;;;;;;216.03;200.50;;;6.10;58.80;;;;;;5011494;28;20187;-70
2023/05/03 04:34:49;;;;;;;177.27;163.60;;;6.10;58.80;;;;;;5012906;28;20168;-70
2023/05/03 04:37:15;;;;;;;232.93;217.10;;;6.20;58.10;;;;;;5013006;28;20491;-70
2023/05/03 04:39:40;;;;;;;239.97;224.00;;;6.40;55.60;;;;;;5013858;28;20434;-70
2023/05/03 04:42:07;;;;;;;227.97;212.47;;;6.50;53.90;;;;;;5011415;28;20194;-69
2023/05/03 04:44:33;;;;;;;108.30;94.50;;;6.60;54.40;;;;;;5013108;28;20180;-68
2023/05/03 04:46:58;;;;;;;118.90;106.80;;;6.80;52.60;;;;;;5013736;28;20657;-69
2023/05/03 04:49:24;;;;;;;170.07;156.73;;;6.80;51.80;;;;;;5013495;28;20723;-69
2023/05/03 04:51:50;;;;;;;216.43;201.23;;;7.00;49.80;;;;;;5012749;28;20171;-70
2023/05/03 04:54:16;;;;;;;251.30;235.33;;;7.10;49.90;;;;;;5012931;28;20187;-70
2023/05/03 04:56:41;;;;;;;194.37;179.87;;;7.30;50.80;;;;;;5013217;28;20168;-69
2023/05/03 04:59:07;;;;;;;306.13;288.13;;;7.50;47.00;;;;;;5012553;28;20466;-69
2023/05/03 05:01:32;;;;;;;304.43;285.97;;;7.60;44.20;;;;;;5011805;28;20187;-70
2023/05/03 05:03:58;;;;;;;198.37;183.67;;;7.80;43.80;;;;;;5013701;28;20168;-70
2023/05/03 05:06:23;;;;;;;228.37;211.80;;;7.90;44.10;;;;;;5013502;28;20177;-70
2023/05/03 05:08:49;;;;;;;239.43;224.10;;;8.00;43.50;;;;;;5016574;28;20211;-70
2023/05/03 05:11:15;;;;;;;156.83;143.57;;;8.20;41.50;;;;;;5013953;28;20179;-70
2023/05/03 05:13:40;;;;;;;98.27;85.83;;;8.40;40.90;;;;;;5013573;28;20181;-70
2023/05/03 05:16:06;;;;;;;144.10;131.50;;;8.50;37.70;;;;;;5013693;28;20274;-69
2023/05/03 05:18:32;;;;;;;265.10;249.07;;;8.70;37.50;;;;;;5013121;28;20208;-69
2023/05/03 05:20:57;;;;;;;138.90;126.33;;;8.70;37.50;;;;;;5013101;28;20184;-69
2023/05/03 05:23:23;;;;;;;110.93;99.07;;;8.80;36.10;;;;;;5013353;28;20184;-69
2023/05/03 05:25:48;;;;;;;126.97;115.00;;;8.80;34.20;;;;;;5013413;28;20285;-68
2023/05/03 05:28:14;;;;;;;173.77;160.17;;;9.00;33.60;;;;;;5013291;28;20192;-70
2023/05/03 05:30:40;;;;;;;217.43;202.90;;;9.00;33.20;;;;;;5012306;28;20276;-70
2023/05/03 05:33:07;;;;;;;208.87;194.37;;;8.90;33.30;;;;;;5014108;28;20183;-70
2023/05/03 05:35:33;;;;;;;222.23;206.77;;;9.10;33.20;;;;;;5029223;28;20414;-69
2023/05/03 05:37:58;;;;;;;206.13;191.40;;;9.20;32.40;;;;;;5027798;28;20457;-70
2023/05/03 05:40:25;;;;;;;178.83;165.03;;;9.30;31.30;;;;;;5029725;28;20428;-70
2023/05/03 05:42:50;;;;;;;170.47;157.00;;;9.40;29.50;;;;;;5027500;28;20445;-69
2023/05/03 05:45:17;;;;;;;213.70;198.93;;;9.50;25.90;;;;;;5029939;28;20432;-69
2023/05/03 05:47:42;;;;;;;179.70;165.87;;;9.50;25.50;;;;;;5027802;28;20638;-69
2023/05/03 05:50:08;;;;;;;95.57;83.13;;;9.50;25.00;;;;;;5026935;28;20434;-69
2023/05/03 05:52:34;;;;;;;98.37;84.97;;;9.50;25.40;;;;;;5026991;28;20184;-69
2023/05/03 05:55:00;;;;;;;274.80;258.10;;;9.70;25.60;;;;;;5026036;28;20471;-69
2023/05/03 05:57:25;;;;;;;226.60;211.33;;;9.70;25.00;;;;;;5026306;28;20268;-68
2023/05/03 05:59:51;;;;;;;183.50;169.67;;;9.80;25.90;;;;;;5027477;28;20206;-69
2023/05/03 06:02:17;;;;;;;248.53;232.73;;;9.90;26.70;;;;;;5027574;28;20650;-69
2023/05/03 06:04:45;;;;;;;134.53;122.37;;;10.10;26.20;;;;;;5026813;28;20171;-70
2023/05/03 06:07:11;;;;;;;479.37;443.30;;;10.10;25.70;;;;;;5026282;28;20456;-68
2023/05/03 06:09:36;;;;;;;185.67;171.83;;;10.00;25.90;;;;;;5026991;28;20426;-68
2023/05/03 06:12:02;;;;;;;193.20;178.93;;;10.00;27.30;;;;;;5020737;28;20184;-70
2023/05/03 06:14:28;;;;;;;216.33;201.50;;;10.30;27.00;;;;;;5017945;28;20183;-72
2023/05/03 06:16:54;;;;;;;335.43;316.60;;;10.60;25.30;;;;;;5024106;28;20192;-69
2023/05/03 06:19:19;;;;;;;159.03;146.07;;;10.70;25.10;;;;;;5024821;28;20458;-70
2023/05/03 06:21:45;;;;;;;741.83;686.30;;;10.80;24.60;;;;;;5029365;28;20455;-71
2023/05/03 06:24:10;;;;;;;239.00;223.10;;;10.80;23.40;;;;;;5031029;28;20199;-70
2023/05/03 06:26:36;;;;;;;272.97;256.07;;;10.90;23.70;;;;;;5030452;28;20251;-69
2023/05/03 06:29:02;;;;;;;172.00;158.27;;;11.00;23.60;;;;;;5032265;28;20573;-69
2023/05/03 06:31:27;;;;;;;273.80;257.10;;;11.50;28.30;;;;;;5032303;28;20184;-70
2023/05/03 06:33:53;;;;;;;257.67;238.43;;;12.10;26.60;;;;;;5028520;28;20428;-70
2023/05/03 06:36:18;;;;;;;215.43;200.10;;;12.60;23.60;;;;;;5026408;28;20176;-70
2023/05/03 06:38:44;;;;;;;217.83;203.17;;;12.50;24.20;;;;;;5029603;28;20806;-70
2023/05/03 06:41:10;;;;;;;233.70;217.43;;;12.70;22.40;;;;;;5027902;28;20239;-71
2023/05/03 06:43:35;;;;;;;198.77;184.40;;;13.00;21.50;;;;;;5027364;28;20258;-71
2023/05/03 06:46:01;;;;;;;214.57;198.67;;;12.90;21.40;;;;;;5030266;28;20177;-72
2023/05/03 06:48:26;;;;;;;312.43;287.57;;;13.10;21.30;;;;;;5033137;28;20215;-71
2023/05/03 06:50:53;;;;;;;459.87;425.20;;;13.60;17.20;;;;;;5023125;28;20185;-72
2023/05/03 06:53:18;;;;;;;640.07;582.20;;;15.50;18.30;;;;;;5015765;28;20211;-72
2023/05/03 06:55:47;;;;;;;612.37;555.37;;;18.80;7.20;;;;;;5016889;28;20419;-73
2023/05/03 06:58:12;;;;;;;713.33;646.20;;;21.20;1.00;;;;;;5015864;28;20338;-71
2023/05/03 07:00:38;;;;;;;728.73;658.73;;;23.60;1.00;;;;;;5015620;28;20483;-70
2023/05/03 07:03:05;;;;;;;874.87;789.30;;;24.20;1.00;;;;;;5016610;28;20184;-71
2023/05/03 07:05:30;;;;;;;612.53;561.53;;;23.30;1.00;;;;;;5019768;28;20195;-71
2023/05/03 07:07:56;;;;;;;1010.93;909.93;;;23.90;1.00;;;;;;5019954;28;20450;-70
2023/05/03 07:10:21;;;;;;;571.13;523.93;;;23.00;1.00;;;;;;5025990;28;20180;-70
2023/05/03 07:12:47;;;;;;;520.13;475.90;;;21.00;1.00;;;;;;5027498;28;20184;-68
2023/05/03 07:15:13;;;;;;;657.10;599.10;;;19.50;1.00;;;;;;5046566;28;20244;-70
2023/05/03 07:17:39;;;;;;;441.70;407.63;;;18.00;1.20;;;;;;5028626;28;20234;-70
2023/05/03 07:20:06;;;;;;;602.57;553.47;;;17.40;2.00;;;;;;5031742;28;20852;-70
2023/05/03 07:22:31;;;;;;;381.07;350.23;;;16.40;4.00;;;;;;5025206;28;20263;-69
2023/05/03 07:24:58;;;;;;;563.87;516.43;;;15.50;5.60;;;;;;5027651;28;20952;-69
2023/05/03 07:27:25;;;;;;;524.17;482.90;;;15.30;6.80;;;;;;5027188;28;20188;-70
2023/05/03 07:29:50;;;;;;;489.23;449.63;;;15.20;7.20;;;;;;5026376;28;20410;-70
2023/05/03 07:32:22;;;;;;;322.80;295.13;;;15.10;7.70;;;;;;5025304;28;20864;-70
2023/05/03 07:34:50;;;;;;;545.53;499.80;;;15.20;8.10;;;;;;5020585;28;20275;-69
2023/05/03 07:37:20;;;;;;;660.67;603.20;;;16.90;5.80;;;;;;5025776;28;20447;-69
2023/05/03 07:39:45;;;;;;;689.20;628.47;;;18.70;2.50;;;;;;5030310;28;20461;-70
2023/05/03 07:42:11;;;;;;;740.03;673.30;;;20.30;1.00;;;;;;5029832;28;20446;-70
2023/05/03 07:44:37;;;;;;;834.07;759.27;;;20.20;1.00;;;;;;5030190;28;20186;-71
2023/05/03 07:47:03;;;;;;;727.47;662.70;;;20.50;1.00;;;;;;5027730;28;20168;-70
2023/05/03 07:49:29;;;;;;;542.13;499.87;;;20.50;1.00;;;;;;5030296;28;20212;-69
2023/05/03 07:51:57;;;;;;;884.30;803.47;;;20.30;1.00;;;;;;5028919;28;20446;-70
2023/05/03 07:54:22;;;;;;;602.63;554.77;;;20.20;1.00;;;;;;5029269;28;20430;-68
2023/05/03 07:56:48;;;;;;;647.43;593.50;;;20.40;1.00;;;;;;5028888;28;20471;-69
2023/05/03 07:59:13;;;;;;;594.63;543.67;;;18.70;1.00;;;;;;5027585;28;20649;-71
2023/05/03 08:01:39;;;;;;;733.17;667.27;;;19.30;1.10;;;;;;5021810;28;20183;-70
2023/05/03 08:04:05;;;;;;;547.10;503.87;;;21.10;1.00;;;;;;5025343;28;20190;-69
2023/05/03 08:06:31;;;;;;;601.20;555.23;;;21.10;1.00;;;;;;5023124;28;20213;-71
2023/05/03 08:08:56;;;;;;;663.73;607.67;;;24.00;1.00;;;;;;5021082;28;20220;-70
2023/05/03 08:11:22;;;;;;;842.57;764.53;;;24.30;1.00;;;;;;5022788;28;20780;-71
2023/05/03 08:13:48;;;;;;;725.23;667.00;;;25.50;1.00;;;;;;5020337;28;20195;-70
2023/05/03 08:16:13;;;;;;;613.83;561.93;;;25.10;1.00;;;;;;5022122;28;20191;-71
2023/05/03 08:18:39;;;;;;;745.97;679.83;;;26.10;1.00;;;;;;5020976;28;20200;-69
2023/05/03 08:21:06;;;;;;;695.83;643.60;;;28.10;1.00;;;;;;5020626;28;20266;-71
2023/05/03 08:23:32;;;;;;;720.43;663.77;;;27.40;1.00;;;;;;5020360;28;20634;-71
2023/05/03 08:25:59;;;;;;;789.43;721.07;;;27.70;1.00;;;;;;5016617;28;20419;-72
2023/05/03 08:28:25;;;;;;;784.67;719.20;;;28.40;1.00;;;;;;5023695;28;20731;-70
2023/05/03 08:30:51;;;;;;;965.93;875.40;;;29.20;1.00;;;;;;5023685;28;20403;-71
2023/05/03 08:33:16;;;;;;;827.37;757.73;;;30.20;1.00;;;;;;5023986;28;20418;-68
2023/05/03 08:35:42;;;;;;;854.00;782.13;;;28.50;1.00;;;;;;5021873;28;20184;-70
2023/05/03 08:38:08;;;;;;;766.50;707.97;;;27.60;1.00;;;;;;5019480;28;20208;-71
2023/05/03 08:40:36;;;;;;;743.03;685.77;;;26.10;1.00;;;;;;5023053;28;20191;-73
2023/05/03 08:43:07;;;;;;;730.60;673.97;;;26.90;1.00;;;;;;5016785;28;20203;-72
2023/05/03 08:45:36;;;;;;;796.37;736.20;;;26.60;1.00;;;;;;5021394;28;20454;-70
2023/05/03 08:48:03;;;;;;;799.50;731.30;;;27.80;1.00;;;;;;5022654;28;20566;-69
2023/05/03 08:50:30;;;;;;;949.17;867.07;;;28.00;1.00;;;;;;5024542;28;20425;-69
2023/05/03 08:52:56;;;;;;;812.73;745.33;;;28.80;1.00;;;;;;5024218;28;20415;-70
2023/05/03 08:55:21;;;;;;;724.20;668.00;;;27.70;1.00;;;;;;5023530;28;20438;-71
2023/05/03 08:57:47;;;;;;;812.40;744.80;;;25.60;1.00;;;;;;5023400;28;20203;-70
2023/05/03 09:00:14;;;;;;;752.50;695.50;;;24.90;1.00;;;;;;5022204;28;20237;-71
2023/05/03 09:02:40;;;;;;;863.47;790.07;;;23.10;1.00;;;;;;5024422;28;20440;-71
2023/05/03 09:05:15;;;;;;;704.83;648.97;;;21.40;1.00;;;;;;5024809;28;20502;-71
2023/05/03 09:08:03;;;;;;;551.47;510.13;;;19.90;1.00;;;;;;5024893;28;20203;-70
2023/05/03 09:10:29;;;;;;;447.53;413.07;;;19.30;1.00;;;;;;5024271;28;20415;-68
2023/05/03 09:13:01;;;;;;;396.70;366.53;;;;;;;;;;5025632;28;20924;-70
2023/05/03 09:15:29;;;;;;;583.17;538.57;;;;;;;;;;5025008;28;20453;-71
2023/05/03 09:18:07;;;;;;;607.70;560.00;;;;;;;;;;5022402;28;20435;-70
2023/05/03 09:20:37;;;;;;;562.87;522.30;;;18.30;1.00;;;;;;5023280;28;20417;-70
2023/05/03 09:23:03;;;;;;;496.70;461.53;;;16.30;7.90;;;;;;5023731;28;20418;-71
2023/05/03 09:25:46;;;;;;;723.07;663.07;;;16.10;7.40;;;;;;5023422;28;20485;-71
2023/05/03 09:28:14;;;;;;;695.40;638.63;;;16.00;7.80;;;;;;5023854;28;20207;-72
2023/05/03 09:30:40;;;;;;;582.97;535.63;;;16.20;7.90;;;;;;5023441;28;20958;-71
2023/05/03 09:33:07;;;;;;;595.20;550.60;;;16.40;7.50;;;;;;5022912;28;20411;-72
2023/05/03 09:35:33;;;;;;;394.53;365.73;;;16.40;7.40;;;;;;5021979;28;20434;-72
2023/05/03 09:37:59;;;;;;;499.23;462.93;;;16.50;7.70;;;;;;5022535;28;20443;-71
2023/05/03 09:40:28;;;;;;;588.43;542.27;;;16.70;7.60;;;;;;5022315;28;20864;-71
2023/05/03 09:43:15;;;;;;;774.43;709.00;;;17.00;7.00;;;;;;5022624;28;20461;-71
2023/05/03 09:45:40;;;;;;;669.33;614.27;;;16.90;7.30;;;;;;5023133;28;20413;-70
2023/05/03 09:48:07;;;;;;;686.03;630.67;;;16.90;5.90;;;;;;5022799;28;20462;-72
2023/05/03 09:50:35;;;;;;;415.63;385.23;;;16.90;5.60;;;;;;5023731;28;20168;-70
2023/05/03 09:53:03;;;;;;;649.80;598.40;;;17.10;5.60;;;;;;5022387;28;20415;-70
2023/05/03 09:55:33;;;;;;;542.40;498.30;;;16.90;5.40;;;;;;5022467;28;20415;-70
2023/05/03 09:57:59;;;;;;;808.47;733.20;;;16.80;5.90;;;;;;5027605;28;20461;-70
2023/05/03 10:00:27;;;;;;;655.53;602.20;;;16.80;5.40;;;;;;5027185;28;20461;-70
2023/05/03 10:02:56;;;;;;;477.70;440.27;;;16.90;5.80;;;;;;5024506;28;20425;-73
2023/05/03 10:05:26;;;;;;;786.00;717.83;;;16.60;6.40;;;;;;5026141;28;20474;-70
2023/05/03 10:07:53;;;;;;;449.40;416.10;;;16.60;7.40;;;;;;5024914;28;20462;-71
2023/05/03 10:10:20;;;;;;;757.83;693.77;;;16.90;7.00;;;;;;5028988;28;20425;-71
2023/05/03 10:12:46;;;;;;;415.07;383.50;;;17.10;5.60;;;;;;5028871;28;20435;-71
2023/05/03 10:15:14;;;;;;;734.07;669.40;;;17.30;5.70;;;;;;5028271;28;20423;-72
2023/05/03 10:17:41;;;;;;;423.73;393.83;;;17.50;4.60;;;;;;5028311;28;20439;-72
2023/05/03 10:20:34;;;;;;;471.07;432.43;;;17.60;5.00;;;;;;5028001;28;20418;-71
2023/05/03 10:23:12;;;;;;;595.97;547.60;;;17.60;4.90;;;;;;5026542;28;20417;-70
2023/05/03 10:25:39;;;;;;;700.47;641.40;;;17.90;4.60;;;;;;5028894;28;20422;-72
2023/05/03 10:28:07;;;;;;;640.63;585.13;;;17.70;3.90;;;;;;5027753;28;20565;-71
2023/05/03 10:30:38;;;;;;;620.20;570.23;;;17.70;4.70;;;;;;5029505;28;20411;-71
2023/05/03 10:33:28;;;;;;;804.27;733.10;;;17.70;3.70;;;;;;5028989;28;20458;-72
2023/05/03 10:35:55;;;;;;;588.03;540.53;;;17.70;4.30;;;;;;5022237;28;20434;-71
2023/05/03 10:38:25;;;;;;;561.10;516.13;;;17.80;4.50;;;;;;5027524;28;20443;-71
2023/05/03 10:40:52;;;;;;;735.47;672.77;;;17.90;3.70;;;;;;5028885;28;20426;-73
2023/05/03 10:43:30;;;;;;;736.47;674.70;;;18.00;4.10;;;;;;5027194;28;20423;-70
2023/05/03 10:45:56;;;;;;;870.80;787.40;;;18.00;2.60;;;;;;5031544;28;20430;-70
2023/05/03 10:48:22;;;;;;;593.80;544.53;;;17.90;2.70;;;;;;5024692;28;20554;-67
2023/05/03 10:50:48;;;;;;;874.33;792.90;;;17.80;3.00;;;;;;5016002;28;20936;-68
2023/05/03 10:53:35;;;;;;;699.90;639.20;;;17.90;2.50;;;;;;5015426;28;20183;-68
2023/05/03 10:56:04;;;;;;;650.67;597.13;;;17.90;2.50;;;;;;5015442;28;20794;-69
2023/05/03 10:58:34;;;;;;;725.53;661.93;;;17.80;2.50;;;;;;5015171;28;20830;-68
2023/05/03 11:01:00;;;;;;;697.67;638.17;;;17.80;1.50;;;;;;5015143;28;20419;-70
2023/05/03 11:04:07;;;;;;;715.97;652.87;;;17.70;1.40;;;;;;5013795;28;20920;-68
2023/05/03 11:06:34;;;;;;;456.13;421.63;;;17.70;1.70;;;;;;5015442;28;20844;-69
2023/05/03 11:09:03;;;;;;;522.93;482.37;;;18.20;1.70;;;;;;5015044;28;20458;-69
2023/05/03 11:11:28;;;;;;;816.83;745.13;;;18.60;1.00;;;;;;5015179;28;20502;-68
2023/05/03 11:13:54;;;;;;;571.50;520.93;;;18.60;1.00;;;;;;5014863;28;20454;-69
2023/05/03 11:16:20;;;;;;;724.33;664.13;;;18.90;1.00;;;;;;5013564;28;20172;-67
2023/05/03 11:18:47;;;;;;;545.47;501.07;;;19.30;1.00;;;;;;5014732;28;20530;-67
2023/05/03 11:21:13;;;;;;;1025.10;910.90;;;19.20;1.00;;;;;;5014443;28;20187;-68
2023/05/03 11:23:39;;;;;;;661.53;604.17;;;19.30;1.00;;;;;;5013977;28;20772;-67
2023/05/03 11:26:08;;;;;;;605.03;557.10;;;19.80;1.00;;;;;;5013883;28;20180;-69
2023/05/03 11:28:37;;;;;;;1154.10;976.70;;;20.20;1.00;;;;;;5014002;28;20987;-69
2023/05/03 11:31:05;;;;;;;821.37;747.30;;;20.10;1.00;;;;;;5014017;28;20411;-67
2023/05/03 11:33:33;;;;;;;572.27;524.23;;;19.40;1.00;;;;;;5013667;28;20422;-66
2023/05/03 11:36:02;;;;;;;707.63;649.67;;;19.20;1.00;;;;;;5014358;28;20414;-70
2023/05/03 11:38:31;;;;;;;772.83;707.57;;;19.20;1.00;;;;;;5013996;28;20477;-68
2023/05/03 11:40:58;;;;;;;534.37;490.10;;;19.20;1.00;;;;;;5013587;28;20513;-70
2023/05/03 11:43:24;;;;;;;594.40;550.10;;;19.40;1.00;;;;;;5012166;28;21052;-69
2023/05/03 11:45:53;;;;;;;876.47;796.90;;;19.90;1.00;;;;;;5013961;28;20415;-68
2023/05/03 11:48:19;;;;;;;589.73;543.27;;;20.10;1.00;;;;;;5013437;28;20474;-69
2023/05/03 11:50:54;;;;;;;385.50;357.07;;;19.80;1.00;;;;;;5013608;28;20514;-69
2023/05/03 11:53:21;;;;;;;728.57;669.33;;;19.90;1.00;;;;;;5011899;28;20176;-69
2023/05/03 11:55:49;;;;;;;582.33;535.00;;;20.20;1.00;;;;;;5012453;28;20423;-69
2023/05/03 11:58:25;;;;;;;774.23;705.37;;;20.30;1.00;;;;;;5013577;28;20525;-68
2023/05/03 12:00:52;;;;;;;625.87;575.83;;;19.80;1.00;;;;;;5013163;28;20441;-68
2023/05/03 12:03:21;;;;;;;684.83;629.83;;;19.50;1.00;;;;;;5011949;28;20419;-68
2023/05/03 12:05:48;;;;;;;688.13;631.70;;;19.60;1.00;;;;;;5012798;28;21015;-69
2023/05/03 12:08:18;;;;;;;714.37;655.37;;;19.60;1.00;;;;;;5013136;28;20565;-69
2023/05/03 12:10:44;;;;;;;586.77;539.53;;;19.80;1.00;;;;;;5014164;28;20972;-68
2023/05/03 12:13:10;;;;;;;569.67;526.50;;;19.90;1.00;;;;;;5013582;28;20521;-70
2023/05/03 12:15:38;;;;;;;321.37;297.77;;;19.80;1.00;;;;;;5013727;28;20176;-70
2023/05/03 12:18:11;;;;;;;718.20;657.47;;;20.00;1.00;;;;;;5013449;28;20427;-69
2023/05/03 12:20:38;;;;;;;625.13;579.73;;;20.30;1.00;;;;;;5012874;28;20461;-69